createdAt,value
2018-08-29T00:00:50.656Z,59.52
2018-08-29T00:01:50.634Z,60.41
2018-08-29T00:02:50.590Z,61.46
2018-08-29T00:03:50.557Z,61.63
2018-08-29T00:04:50.520Z,61.56
2018-08-29T00:05:50.485Z,62.13
2018-08-29T00:06:50.450Z,61.56
2018-08-29T00:07:50.413Z,61.75
2018-08-29T00:08:50.384Z,63.29
2018-08-29T00:09:50.349Z,62.52
2018-08-29T00:10:50.322Z,62.62
2018-08-29T00:11:50.285Z,63.48
2018-08-29T00:12:50.249Z,63.57
2018-08-29T00:13:50.212Z,63.86
2018-08-29T00:14:50.173Z,64.34
2018-08-29T00:15:50.146Z,64.63
2018-08-29T00:16:50.114Z,64.34
2018-08-29T00:17:50.072Z,64.72
2018-08-29T00:18:50.055Z,64.43
2018-08-29T00:19:50.003Z,65.01
2018-08-29T00:20:49.979Z,65.39
2018-08-29T00:21:49.940Z,65.30
2018-08-29T00:22:49.904Z,65.59
2018-08-29T00:23:49.869Z,64.92
2018-08-29T00:24:49.833Z,65.68
2018-08-29T00:25:49.804Z,65.88
2018-08-29T00:26:49.764Z,65.59
2018-08-29T00:27:49.728Z,66.06
2018-08-29T00:28:49.697Z,66.74
2018-08-29T00:29:49.665Z,66.93
2018-08-29T00:30:49.634Z,67.02
2018-08-29T00:31:49.603Z,66.55
2018-08-29T00:32:49.560Z,66.26
2018-08-29T00:33:49.524Z,67.60
2018-08-29T00:34:49.494Z,67.69
2018-08-29T00:35:49.461Z,68.37
2018-08-29T00:36:49.420Z,68.18
2018-08-29T00:37:49.384Z,67.60
2018-08-29T00:38:49.346Z,67.99
2018-08-29T00:39:49.315Z,68.85
2018-08-29T00:40:49.280Z,68.75
2018-08-29T00:41:49.252Z,68.75
2018-08-29T00:42:49.217Z,68.18
2018-08-29T00:43:49.184Z,68.18
2018-08-29T00:44:49.144Z,68.95
2018-08-29T00:45:49.108Z,68.85
2018-08-29T00:46:49.072Z,68.75
2018-08-29T00:47:49.044Z,68.85
2018-08-29T00:48:49.009Z,68.37
2018-08-29T00:49:48.970Z,68.56
2018-08-29T00:50:48.936Z,69.52
2018-08-29T00:51:48.910Z,68.75
2018-08-29T00:52:48.872Z,67.99
2018-08-29T00:53:48.837Z,67.89
2018-08-29T00:54:48.804Z,68.08
2018-08-29T00:55:48.770Z,68.08
2018-08-29T00:56:48.734Z,68.08
2018-08-29T00:57:48.699Z,67.69
2018-08-29T00:58:48.667Z,67.69
2018-08-29T00:59:48.627Z,67.50
2018-08-29T01:00:48.597Z,66.64
2018-08-29T01:01:48.564Z,68.18
2018-08-29T01:02:48.527Z,68.27
2018-08-29T01:03:48.488Z,68.18
2018-08-29T01:04:48.455Z,68.46
2018-08-29T01:05:48.423Z,67.69
2018-08-29T01:06:48.389Z,67.60
2018-08-29T01:07:48.356Z,68.08
2018-08-29T01:08:48.320Z,68.08
2018-08-29T01:09:48.285Z,68.56
2018-08-29T01:10:48.247Z,67.60
2018-08-29T01:11:48.213Z,68.27
2018-08-29T01:12:48.182Z,68.18
2018-08-29T01:13:48.153Z,68.08
2018-08-29T01:14:48.116Z,68.18
2018-08-29T01:15:48.084Z,68.08
2018-08-29T01:16:48.046Z,68.37
2018-08-29T01:17:48.007Z,68.18
2018-08-29T01:18:47.977Z,67.79
2018-08-29T01:19:47.946Z,67.69
2018-08-29T01:20:47.906Z,66.93
2018-08-29T01:21:47.869Z,67.69
2018-08-29T01:22:47.835Z,66.83
2018-08-29T01:23:47.799Z,65.88
2018-08-29T01:24:47.767Z,67.12
2018-08-29T01:25:47.733Z,66.26
2018-08-29T01:26:47.702Z,65.68
2018-08-29T01:27:47.671Z,65.26
2018-08-29T01:28:47.629Z,64.25
2018-08-29T01:29:47.593Z,65.17
2018-08-29T01:30:47.558Z,64.98
2018-08-29T01:31:47.525Z,64.89
2018-08-29T01:32:47.495Z,65.08
2018-08-29T01:33:47.459Z,64.50
2018-08-29T01:34:47.425Z,64.98
2018-08-29T01:35:47.386Z,64.89
2018-08-29T01:36:47.356Z,65.01
2018-08-29T01:37:47.320Z,65.17
2018-08-29T01:38:47.289Z,65.39
2018-08-29T01:39:47.252Z,65.39
2018-08-29T01:40:47.222Z,64.89
2018-08-29T01:41:47.180Z,65.08
2018-08-29T01:42:47.142Z,65.84
2018-08-29T01:43:47.107Z,64.98
2018-08-29T01:44:47.076Z,64.79
2018-08-29T01:45:47.042Z,65.75
2018-08-29T01:46:47.009Z,65.59
2018-08-29T01:47:46.981Z,65.68
2018-08-29T01:48:46.942Z,65.68
2018-08-29T01:49:46.903Z,65.97
2018-08-29T01:50:46.867Z,65.20
2018-08-29T01:51:46.839Z,64.63
2018-08-29T01:52:46.802Z,65.30
2018-08-29T01:53:46.771Z,65.49
2018-08-29T01:54:46.728Z,64.92
2018-08-29T01:55:46.693Z,65.30
2018-08-29T01:56:46.667Z,64.22
2018-08-29T01:57:46.629Z,64.89
2018-08-29T01:58:46.597Z,64.22
2018-08-29T01:59:46.563Z,64.63
2018-08-29T02:00:46.525Z,64.02
2018-08-29T02:01:46.489Z,63.73
2018-08-29T02:02:46.451Z,63.35
2018-08-29T02:03:46.417Z,62.96
2018-08-29T02:04:46.384Z,62.96
2018-08-29T02:05:46.359Z,62.49
2018-08-29T02:06:46.320Z,62.20
2018-08-29T02:07:46.278Z,61.91
2018-08-29T02:08:46.247Z,61.82
2018-08-29T02:09:46.213Z,62.10
2018-08-29T02:10:46.191Z,61.63
2018-08-29T02:11:46.145Z,61.24
2018-08-29T02:12:46.112Z,60.57
2018-08-29T02:13:46.073Z,59.90
2018-08-29T02:14:46.036Z,60.67
2018-08-29T02:15:46.001Z,60.19
2018-08-29T02:16:45.969Z,60.38
2018-08-29T02:17:45.938Z,61.05
2018-08-29T02:18:45.903Z,60.28
2018-08-29T02:19:45.869Z,60.19
2018-08-29T02:20:45.832Z,60.19
2018-08-29T02:21:45.796Z,59.42
2018-08-29T02:22:45.766Z,59.04
2018-08-29T02:23:45.733Z,59.23
2018-08-29T02:24:45.704Z,59.23
2018-08-29T02:25:45.657Z,58.84
2018-08-29T02:26:45.620Z,59.33
2018-08-29T02:27:45.585Z,59.23
2018-08-29T02:28:45.553Z,59.23
2018-08-29T02:29:45.522Z,59.42
2018-08-29T02:30:45.488Z,59.61
2018-08-29T02:31:45.455Z,59.04
2018-08-29T02:32:45.422Z,59.04
2018-08-29T02:33:45.381Z,58.75
2018-08-29T02:34:45.345Z,58.94
2018-08-29T02:35:45.313Z,58.84
2018-08-29T02:36:45.281Z,58.27
2018-08-29T02:37:45.246Z,57.79
2018-08-29T02:38:45.221Z,57.89
2018-08-29T02:39:45.172Z,56.93
2018-08-29T02:40:45.140Z,57.19
2018-08-29T02:41:45.108Z,56.61
2018-08-29T02:42:45.073Z,55.56
2018-08-29T02:43:45.039Z,56.07
2018-08-29T02:44:45.002Z,55.68
2018-08-29T02:45:44.969Z,55.87
2018-08-29T02:46:44.929Z,56.54
2018-08-29T02:47:44.895Z,56.54
2018-08-29T02:48:44.864Z,56.07
2018-08-29T02:49:44.831Z,56.07
2018-08-29T02:50:44.800Z,56.16
2018-08-29T02:51:44.764Z,55.97
2018-08-29T02:52:44.725Z,55.36
2018-08-29T02:53:44.688Z,56.04
2018-08-29T02:54:44.650Z,55.36
2018-08-29T02:55:44.624Z,55.27
2018-08-29T02:56:44.587Z,53.93
2018-08-29T02:57:44.552Z,53.74
2018-08-29T02:58:44.512Z,53.07
2018-08-29T02:59:44.480Z,52.01
2018-08-29T03:00:44.447Z,51.82
2018-08-29T03:01:44.415Z,51.34
2018-08-29T03:02:44.382Z,51.63
2018-08-29T03:03:44.369Z,52.01
2018-08-29T03:04:44.314Z,52.59
2018-08-29T03:05:44.276Z,52.59
2018-08-29T03:06:44.235Z,52.20
2018-08-29T03:07:44.200Z,52.97
2018-08-29T03:08:44.168Z,52.97
2018-08-29T03:09:44.141Z,52.59
2018-08-29T03:10:44.108Z,52.87
2018-08-29T03:11:44.071Z,52.97
2018-08-29T03:12:44.034Z,52.87
2018-08-29T03:13:43.997Z,52.69
2018-08-29T03:14:43.965Z,52.78
2018-08-29T03:15:43.935Z,52.69
2018-08-29T03:16:43.899Z,53.36
2018-08-29T03:17:43.856Z,53.07
2018-08-29T03:18:43.819Z,53.64
2018-08-29T03:19:43.833Z,53.58
2018-08-29T03:20:43.752Z,53.74
2018-08-29T03:21:43.728Z,53.93
2018-08-29T03:22:43.686Z,53.45
2018-08-29T03:23:43.652Z,53.74
2018-08-29T03:24:43.615Z,52.78
2018-08-29T03:25:43.578Z,52.87
2018-08-29T03:26:43.544Z,52.50
2018-08-29T03:27:43.518Z,52.30
2018-08-29T03:28:43.479Z,52.20
2018-08-29T03:29:43.448Z,52.40
2018-08-29T03:30:43.403Z,52.50
2018-08-29T03:31:43.369Z,52.11
2018-08-29T03:32:43.337Z,52.59
2018-08-29T03:33:43.305Z,51.63
2018-08-29T03:34:43.269Z,51.15
2018-08-29T03:35:43.234Z,50.29
2018-08-29T03:36:43.201Z,50.10
2018-08-29T03:37:43.172Z,49.81
2018-08-29T03:38:43.126Z,49.05
2018-08-29T03:39:43.093Z,48.57
2018-08-29T03:40:43.061Z,48.28
2018-08-29T03:41:43.028Z,47.71
2018-08-29T03:42:43.036Z,46.94
2018-08-29T03:43:42.951Z,47.03
2018-08-29T03:44:42.920Z,47.22
2018-08-29T03:45:42.886Z,47.03
2018-08-29T03:46:42.853Z,45.59
2018-08-29T03:47:42.821Z,44.73
2018-08-29T03:48:42.783Z,45.31
2018-08-29T03:49:42.745Z,44.64
2018-08-29T03:50:42.712Z,43.87
2018-08-29T03:51:42.675Z,44.26
2018-08-29T03:52:42.638Z,43.20
2018-08-29T03:53:42.631Z,42.91
2018-08-29T04:06:43.932Z,40.52
2018-08-29T04:07:43.864Z,40.33
2018-08-29T04:08:43.829Z,40.23
2018-08-29T04:09:43.790Z,40.33
2018-08-29T04:10:43.746Z,40.14
2018-08-29T04:11:43.710Z,40.52
2018-08-29T04:12:43.666Z,40.52
2018-08-29T04:13:43.631Z,40.42
2018-08-29T04:14:43.595Z,40.90
2018-08-29T04:15:43.565Z,41.19
2018-08-29T04:16:43.518Z,41.28
2018-08-29T04:17:43.483Z,41.19
2018-08-29T04:18:43.452Z,41.67
2018-08-29T04:19:43.414Z,42.44
2018-08-29T04:20:43.384Z,43.01
2018-08-29T04:21:43.371Z,43.30
2018-08-29T04:22:43.306Z,43.70
2018-08-29T04:23:43.271Z,43.99
2018-08-29T04:24:43.240Z,44.09
2018-08-29T04:25:43.201Z,44.06
2018-08-29T04:26:43.167Z,44.56
2018-08-29T04:27:43.134Z,45.04
2018-08-29T04:28:43.088Z,45.14
2018-08-29T04:29:43.055Z,44.76
2018-08-29T04:30:43.019Z,44.47
2018-08-29T04:31:42.982Z,45.14
2018-08-29T04:32:42.952Z,45.43
2018-08-29T04:33:42.914Z,45.14
2018-08-29T04:34:42.880Z,45.43
2018-08-29T04:35:42.849Z,45.43
2018-08-29T04:36:42.810Z,45.43
2018-08-29T04:37:42.780Z,45.31
2018-08-29T04:38:42.739Z,45.69
2018-08-29T04:39:42.706Z,45.72
2018-08-29T04:40:42.664Z,45.43
2018-08-29T04:41:42.631Z,45.52
2018-08-29T04:42:42.596Z,45.31
2018-08-29T04:43:42.574Z,45.12
2018-08-29T04:44:42.529Z,44.64
2018-08-29T04:45:42.496Z,44.45
2018-08-29T04:46:42.460Z,44.73
2018-08-29T04:47:42.430Z,45.12
2018-08-29T04:48:42.383Z,44.47
2018-08-29T04:49:42.351Z,45.12
2018-08-29T04:50:42.318Z,45.12
2018-08-29T04:51:42.279Z,44.83
2018-08-29T04:52:42.253Z,45.02
2018-08-29T04:53:42.215Z,44.45
2018-08-29T04:54:42.176Z,44.95
2018-08-29T04:55:42.141Z,44.83
2018-08-29T04:56:42.109Z,44.26
2018-08-29T04:57:42.074Z,44.16
2018-08-29T04:58:42.042Z,43.59
2018-08-29T04:59:42.006Z,43.10
2018-08-29T05:00:41.964Z,43.30
2018-08-29T05:01:41.931Z,42.82
2018-08-29T05:02:41.897Z,42.53
2018-08-29T05:03:41.862Z,42.24
2018-08-29T05:04:41.830Z,42.63
2018-08-29T05:05:41.794Z,42.05
2018-08-29T05:06:41.760Z,41.09
2018-08-29T05:07:41.728Z,40.61
2018-08-29T05:08:41.686Z,40.81
2018-08-29T05:09:41.669Z,40.52
2018-08-29T05:10:41.625Z,40.61
2018-08-29T05:11:41.588Z,41.77
2018-08-29T05:12:41.545Z,41.00
2018-08-29T05:13:41.512Z,40.52
2018-08-29T05:14:41.477Z,40.42
2018-08-29T05:15:41.440Z,40.04
2018-08-29T05:16:41.412Z,40.04
2018-08-29T05:17:41.376Z,40.14
2018-08-29T05:18:41.410Z,40.14
2018-08-29T05:19:41.316Z,38.98
2018-08-29T05:20:41.266Z,38.60
2018-08-29T05:21:41.238Z,37.93
2018-08-29T05:22:41.203Z,37.36
2018-08-29T05:23:41.163Z,37.55
2018-08-29T05:24:41.168Z,37.45
2018-08-29T05:25:41.097Z,38.98
2018-08-29T05:26:41.067Z,38.70
2018-08-29T05:27:41.023Z,38.79
2018-08-29T05:28:40.994Z,37.65
2018-08-29T05:29:40.956Z,38.24
2018-08-29T05:30:40.928Z,38.14
2018-08-29T05:31:40.890Z,39.01
2018-08-29T05:32:40.851Z,39.01
2018-08-29T05:33:40.822Z,39.01
2018-08-29T05:34:40.840Z,39.29
2018-08-29T05:35:40.756Z,39.10
2018-08-29T05:36:40.715Z,39.10
2018-08-29T05:37:40.679Z,39.10
2018-08-29T05:38:40.645Z,39.01
2018-08-29T05:39:40.611Z,40.25
2018-08-29T05:40:40.571Z,39.58
2018-08-29T05:41:40.540Z,40.84
2018-08-29T05:42:40.506Z,40.37
2018-08-29T05:43:40.475Z,41.04
2018-08-29T05:44:40.434Z,40.94
2018-08-29T05:45:40.401Z,42.47
2018-08-29T05:46:40.366Z,42.86
2018-08-29T05:47:40.346Z,43.15
2018-08-29T05:48:40.305Z,44.03
2018-08-29T05:49:40.271Z,43.05
2018-08-29T05:50:40.229Z,44.23
2018-08-29T05:51:40.197Z,43.94
2018-08-29T05:52:40.160Z,44.61
2018-08-29T05:53:40.124Z,43.65
2018-08-29T05:54:40.092Z,44.80
2018-08-29T05:55:40.054Z,45.09
2018-08-29T05:56:40.027Z,44.42
2018-08-29T05:57:39.989Z,45.18
2018-08-29T05:58:39.953Z,45.09
2018-08-29T05:59:39.921Z,44.61
2018-08-29T06:00:39.887Z,43.94
2018-08-29T06:01:39.874Z,43.46
2018-08-29T06:02:39.820Z,43.46
2018-08-29T06:03:39.787Z,44.03
2018-08-29T06:04:39.751Z,44.13
2018-08-29T06:05:39.713Z,45.37
2018-08-29T06:06:39.680Z,45.68
2018-08-29T06:07:39.644Z,47.22
2018-08-29T06:08:39.616Z,48.09
2018-08-29T06:09:39.582Z,48.85
2018-08-29T06:10:39.546Z,49.43
2018-08-29T06:11:39.520Z,48.76
2018-08-29T06:12:39.475Z,49.91
2018-08-29T06:13:39.444Z,51.64
2018-08-29T06:14:39.412Z,50.68
2018-08-29T06:15:39.378Z,50.01
2018-08-29T06:16:39.341Z,51.93
2018-08-29T06:17:39.306Z,52.34
2018-08-29T06:18:39.303Z,53.30
2018-08-29T06:19:39.239Z,53.58
2018-08-29T06:20:39.208Z,53.39
2018-08-29T06:21:39.188Z,54.06
2018-08-29T06:22:39.141Z,53.30
2018-08-29T06:23:39.108Z,52.81
2018-08-29T06:24:39.068Z,53.58
2018-08-29T06:25:39.047Z,53.70
2018-08-29T06:26:39.016Z,53.80
2018-08-29T06:27:38.973Z,52.55
2018-08-29T06:28:38.943Z,54.09
2018-08-29T06:29:38.904Z,54.19
2018-08-29T06:30:38.869Z,56.11
2018-08-29T06:31:38.834Z,54.86
2018-08-29T06:32:38.866Z,55.73
2018-08-29T06:33:38.774Z,54.96
2018-08-29T06:34:38.743Z,58.03
2018-08-29T06:35:38.714Z,57.68
2018-08-29T06:36:38.672Z,58.13
2018-08-29T06:37:38.635Z,57.75
2018-08-29T06:38:38.605Z,57.36
2018-08-29T06:39:38.621Z,56.78
2018-08-29T06:40:38.541Z,57.29
2018-08-29T06:41:38.506Z,58.15
2018-08-29T06:42:38.482Z,59.12
2018-08-29T06:43:38.441Z,58.64
2018-08-29T06:44:38.401Z,59.89
2018-08-29T06:45:38.370Z,60.56
2018-08-29T06:46:38.338Z,60.75
2018-08-29T06:47:38.308Z,62.61
2018-08-29T06:48:38.269Z,61.65
2018-08-29T06:49:38.244Z,60.97
2018-08-29T06:50:38.209Z,62.23
2018-08-29T06:51:38.199Z,62.32
2018-08-29T06:52:38.146Z,62.80
2018-08-29T06:53:38.113Z,64.25
2018-08-29T06:54:38.076Z,63.38
2018-08-29T06:55:38.048Z,64.28
2018-08-29T06:56:38.005Z,64.18
2018-08-29T06:57:37.981Z,67.83
2018-08-29T06:58:37.943Z,68.99
2018-08-29T06:59:37.909Z,66.68
2018-08-29T07:00:37.881Z,67.00
2018-08-29T07:01:37.847Z,69.76
2018-08-29T07:02:37.812Z,69.41
2018-08-29T07:03:37.780Z,68.64
2018-08-29T07:04:37.752Z,68.64
2018-08-29T07:05:37.719Z,70.09
2018-08-29T07:06:37.684Z,70.18
2018-08-29T07:07:37.654Z,71.04
2018-08-29T07:08:37.616Z,71.47
2018-08-29T07:09:37.712Z,73.10
2018-08-29T07:10:37.558Z,73.20
2018-08-29T07:11:37.523Z,74.07
2018-08-29T07:12:37.494Z,73.10
2018-08-29T07:13:37.458Z,72.53
2018-08-29T07:14:37.426Z,72.75
2018-08-29T07:15:37.401Z,73.43
2018-08-29T07:16:37.358Z,74.58
2018-08-29T07:17:37.330Z,73.72
2018-08-29T07:18:37.302Z,74.88
2018-08-29T07:19:37.274Z,75.84
2018-08-29T07:20:37.237Z,76.26
2018-08-29T07:21:37.202Z,76.36
2018-08-29T07:22:37.206Z,77.61
2018-08-29T07:23:37.135Z,78.00
2018-08-29T07:24:37.110Z,78.00
2018-08-29T07:25:37.081Z,78.77
2018-08-29T07:26:37.044Z,78.52
2018-08-29T07:27:37.019Z,78.96
2018-08-29T07:28:36.979Z,78.61
2018-08-29T07:29:37.076Z,79.29
2018-08-29T07:30:36.916Z,79.49
2018-08-29T07:31:36.879Z,79.39
2018-08-29T07:32:36.857Z,79.39
2018-08-29T07:33:36.822Z,79.10
2018-08-29T07:34:36.786Z,79.49
2018-08-29T07:35:36.785Z,79.19
2018-08-29T07:36:36.729Z,79.77
2018-08-29T07:37:36.695Z,79.49
2018-08-29T07:38:36.663Z,79.87
2018-08-29T07:39:36.636Z,79.87
2018-08-29T07:40:36.597Z,80.58
2018-08-29T07:41:36.578Z,80.58
2018-08-29T07:42:36.538Z,80.10
2018-08-29T07:43:36.509Z,80.39
2018-08-29T07:44:36.480Z,80.49
2018-08-29T07:45:36.451Z,81.11
2018-08-29T07:46:36.416Z,81.01
2018-08-29T07:47:36.385Z,80.53
2018-08-29T07:48:36.348Z,80.53
2018-08-29T07:49:36.318Z,79.80
2018-08-29T07:50:36.288Z,80.47
2018-08-29T07:51:36.259Z,80.47
2018-08-29T07:52:36.227Z,80.66
2018-08-29T07:53:36.207Z,79.99
2018-08-29T07:54:36.161Z,80.76
2018-08-29T07:55:36.128Z,81.34
2018-08-29T07:56:36.102Z,81.24
2018-08-29T07:57:36.070Z,80.76
2018-08-29T07:58:36.039Z,81.24
2018-08-29T07:59:36.019Z,80.95
2018-08-29T08:00:35.982Z,81.24
2018-08-29T08:01:35.944Z,80.38
2018-08-29T08:02:35.922Z,80.57
2018-08-29T08:03:35.885Z,80.99
2018-08-29T08:04:35.866Z,80.61
2018-08-29T08:05:35.823Z,81.48
2018-08-29T08:06:35.793Z,80.41
2018-08-29T08:07:35.875Z,80.71
2018-08-29T08:08:36.181Z,80.90
2018-08-29T08:09:35.838Z,81.52
2018-08-29T08:10:35.673Z,81.38
2018-08-29T08:11:35.648Z,81.48
2018-08-29T08:12:35.609Z,82.06
2018-08-29T08:13:35.583Z,81.48
2018-08-29T08:14:35.550Z,82.15
2018-08-29T08:15:35.591Z,81.77
2018-08-29T08:16:35.493Z,82.06
2018-08-29T08:17:35.458Z,81.96
2018-08-29T08:18:35.428Z,81.92
2018-08-29T08:19:35.399Z,81.92
2018-08-29T08:20:35.368Z,81.92
2018-08-29T08:21:35.333Z,81.29
2018-08-29T08:22:35.364Z,81.67
2018-08-29T08:23:35.282Z,81.77
2018-08-29T08:24:35.243Z,81.29
2018-08-29T08:25:35.217Z,80.99
2018-08-29T08:26:35.186Z,81.57
2018-08-29T08:27:35.155Z,81.96
2018-08-29T08:28:35.127Z,81.87
2018-08-29T08:29:35.126Z,81.77
2018-08-29T08:30:35.071Z,81.77
2018-08-29T08:31:35.035Z,81.96
2018-08-29T08:32:35.008Z,81.57
2018-08-29T08:33:34.970Z,81.77
2018-08-29T08:34:34.955Z,81.77
2018-08-29T08:35:34.914Z,81.90
2018-08-29T08:36:34.885Z,81.13
2018-08-29T08:37:34.853Z,80.80
2018-08-29T08:38:34.824Z,80.90
2018-08-29T08:39:34.792Z,80.84
2018-08-29T08:40:34.824Z,81.42
2018-08-29T08:41:34.737Z,80.94
2018-08-29T08:42:34.704Z,81.42
2018-08-29T08:43:34.682Z,80.94
2018-08-29T08:44:34.645Z,80.84
2018-08-29T08:45:34.609Z,81.62
2018-08-29T08:46:34.579Z,80.84
2018-08-29T08:47:34.558Z,80.94
2018-08-29T08:48:34.698Z,81.13
2018-08-29T08:49:34.741Z,81.04
2018-08-29T08:50:34.463Z,80.94
2018-08-29T08:51:34.433Z,80.90
2018-08-29T08:52:34.400Z,81.87
2018-08-29T08:53:34.376Z,81.67
2018-08-29T08:54:34.350Z,81.29
2018-08-29T08:55:34.313Z,81.38
2018-08-29T08:56:34.278Z,81.19
2018-08-29T08:57:34.246Z,80.99
2018-08-29T08:58:34.216Z,81.29
2018-08-29T08:59:34.222Z,81.87
2018-08-29T09:00:34.160Z,81.38
2018-08-29T09:01:34.140Z,81.67
2018-08-29T09:02:34.108Z,81.77
2018-08-29T09:03:34.079Z,81.67
2018-08-29T09:04:34.039Z,81.77
2018-08-29T09:05:34.007Z,81.53
2018-08-29T09:06:33.984Z,81.53
2018-08-29T09:07:33.970Z,81.63
2018-08-29T09:08:33.919Z,81.24
2018-08-29T09:09:33.906Z,82.31
2018-08-29T09:10:33.855Z,82.21
2018-08-29T09:11:33.828Z,82.31
2018-08-29T09:12:33.798Z,82.40
2018-08-29T09:13:33.771Z,82.31
2018-08-29T09:14:33.752Z,82.31
2018-08-29T09:15:33.714Z,81.57
2018-08-29T09:16:33.677Z,82.06
2018-08-29T09:17:33.644Z,81.09
2018-08-29T09:18:33.619Z,80.51
2018-08-29T09:19:33.592Z,80.22
2018-08-29T09:20:33.556Z,80.65
2018-08-29T09:21:33.533Z,79.87
2018-08-29T09:22:33.501Z,79.58
2018-08-29T09:23:33.474Z,79.25
2018-08-29T09:24:33.439Z,80.03
2018-08-29T09:25:33.405Z,79.83
2018-08-29T09:26:33.380Z,80.03
2018-08-29T09:27:33.347Z,80.22
2018-08-29T09:28:33.387Z,80.03
2018-08-29T09:29:33.289Z,80.32
2018-08-29T09:30:33.256Z,80.51
2018-08-29T09:31:33.229Z,80.16
2018-08-29T09:32:33.202Z,79.97
2018-08-29T09:33:33.171Z,79.58
2018-08-29T09:34:33.140Z,78.81
2018-08-29T09:35:33.109Z,79.10
2018-08-29T09:36:33.074Z,79.00
2018-08-29T09:37:33.045Z,79.29
2018-08-29T09:38:33.015Z,79.00
2018-08-29T09:39:32.985Z,79.78
2018-08-29T09:40:32.958Z,79.58
2018-08-29T09:41:32.933Z,79.68
2018-08-29T09:42:32.893Z,80.07
2018-08-29T09:43:32.867Z,78.91
2018-08-29T09:44:32.837Z,79.58
2018-08-29T09:45:32.810Z,79.49
2018-08-29T09:46:32.798Z,78.71
2018-08-29T09:47:32.752Z,78.52
2018-08-29T09:48:32.821Z,78.33
2018-08-29T09:49:32.684Z,79.33
2018-08-29T09:50:32.661Z,78.17
2018-08-29T09:51:32.629Z,78.17
2018-08-29T09:52:32.600Z,78.85
2018-08-29T09:53:32.574Z,78.94
2018-08-29T09:54:32.543Z,79.24
2018-08-29T09:55:32.513Z,79.43
2018-08-29T09:56:32.483Z,80.20
2018-08-29T09:57:32.446Z,80.01
2018-08-29T09:58:32.428Z,79.91
2018-08-29T09:59:32.395Z,79.08
2018-08-29T10:00:32.365Z,78.69
2018-08-29T10:01:32.329Z,78.11
2018-08-29T10:02:32.300Z,77.63
2018-08-29T10:03:32.286Z,77.63
2018-08-29T10:04:32.301Z,78.11
2018-08-29T10:05:32.220Z,77.82
2018-08-29T10:06:32.191Z,77.82
2018-08-29T10:21:05.845Z,76.89
2018-08-29T10:22:05.843Z,77.61
2018-08-29T10:23:05.232Z,76.83
2018-08-29T10:24:05.194Z,76.83
2018-08-29T10:25:05.166Z,76.02
2018-08-29T10:26:05.132Z,76.15
2018-08-29T10:27:05.095Z,75.57
2018-08-29T10:28:05.069Z,76.35
2018-08-29T10:29:05.032Z,75.77
2018-08-29T10:30:05.001Z,75.48
2018-08-29T10:31:04.974Z,75.57
2018-08-29T10:32:04.946Z,75.63
2018-08-29T10:33:04.912Z,76.70
2018-08-29T10:34:04.883Z,76.64
2018-08-29T10:35:04.847Z,76.99
2018-08-29T10:36:04.834Z,76.35
2018-08-29T10:37:04.792Z,76.21
2018-08-29T10:38:04.774Z,76.83
2018-08-29T10:39:04.729Z,76.60
2018-08-29T10:40:04.700Z,76.25
2018-08-29T10:41:04.669Z,76.74
2018-08-29T10:42:04.637Z,76.06
2018-08-29T10:43:04.613Z,75.57
2018-08-29T10:44:04.583Z,76.45
2018-08-29T10:45:04.589Z,76.64
2018-08-29T10:46:04.539Z,76.25
2018-08-29T10:47:04.508Z,75.87
2018-08-29T10:48:04.463Z,76.45
2018-08-29T10:49:04.433Z,76.39
2018-08-29T10:50:04.402Z,75.51
2018-08-29T10:51:04.380Z,74.45
2018-08-29T10:52:04.347Z,74.64
2018-08-29T10:53:04.329Z,75.23
2018-08-29T10:54:04.288Z,74.54
2018-08-29T10:55:04.296Z,74.64
2018-08-29T10:56:04.232Z,74.54
2018-08-29T10:57:04.204Z,73.77
2018-08-29T10:58:04.175Z,74.64
2018-08-29T10:59:04.139Z,74.54
2018-08-29T11:00:04.113Z,73.77
2018-08-29T11:01:04.089Z,73.77
2018-08-29T11:02:04.054Z,73.38
2018-08-29T11:03:04.031Z,74.35
2018-08-29T11:04:04.000Z,74.06
2018-08-29T11:05:03.972Z,74.19
2018-08-29T11:06:03.947Z,73.80
2018-08-29T11:07:03.910Z,73.80
2018-08-29T11:08:03.883Z,73.67
2018-08-29T11:09:03.856Z,73.86
2018-08-29T11:10:03.833Z,73.96
2018-08-29T11:11:03.797Z,74.45
2018-08-29T11:12:03.768Z,75.71
2018-08-29T11:13:03.743Z,75.57
2018-08-29T11:14:03.711Z,76.25
2018-08-29T11:15:03.687Z,77.32
2018-08-29T11:16:03.666Z,79.06
2018-08-29T11:17:03.630Z,80.42
2018-08-29T11:18:03.598Z,81.33
2018-08-29T11:19:03.570Z,81.91
2018-08-29T11:20:03.537Z,82.65
2018-08-29T11:21:03.510Z,81.77
2018-08-29T11:22:03.510Z,81.58
2018-08-29T11:23:03.454Z,81.87
2018-08-29T11:24:03.433Z,81.91
2018-08-29T11:25:03.394Z,81.91
2018-08-29T11:26:03.370Z,81.82
2018-08-29T11:27:03.341Z,82.30
2018-08-29T11:28:03.381Z,79.88
2018-08-29T11:29:03.283Z,79.06
2018-08-29T11:30:03.254Z,77.55
2018-08-29T11:31:03.223Z,77.84
2018-08-29T11:32:03.201Z,76.97
2018-08-29T11:33:03.163Z,77.45
2018-08-29T11:34:03.142Z,77.65
2018-08-29T11:35:03.110Z,75.61
2018-08-29T11:36:03.082Z,75.61
2018-08-29T11:37:03.054Z,76.87
2018-08-29T11:38:03.024Z,75.61
2018-08-29T11:39:02.995Z,75.90
2018-08-29T11:40:02.997Z,75.32
2018-08-29T11:41:02.942Z,75.23
2018-08-29T11:42:02.933Z,75.45
2018-08-29T11:43:03.091Z,75.26
2018-08-29T11:44:02.849Z,74.58
2018-08-29T11:45:02.832Z,74.49
2018-08-29T11:46:02.795Z,74.10
2018-08-29T11:47:02.765Z,74.43
2018-08-29T11:48:02.739Z,73.65
2018-08-29T11:49:02.710Z,72.97
2018-08-29T11:50:02.684Z,73.07
2018-08-29T11:51:02.655Z,72.19
2018-08-29T11:52:02.624Z,72.00
2018-08-29T11:53:02.593Z,72.29
2018-08-29T11:54:02.564Z,71.90
2018-08-29T11:55:02.563Z,71.42
2018-08-29T11:56:02.510Z,71.61
2018-08-29T11:57:02.478Z,71.61
2018-08-29T11:58:02.452Z,70.83
2018-08-29T11:59:02.423Z,71.22
2018-08-29T12:00:02.397Z,71.22
2018-08-29T12:01:02.435Z,70.64
2018-08-29T12:02:02.357Z,70.73
2018-08-29T12:03:02.309Z,70.64
2018-08-29T12:04:02.283Z,70.93
2018-08-29T12:05:02.250Z,71.51
2018-08-29T12:06:02.232Z,71.42
2018-08-29T12:07:02.205Z,71.22
2018-08-29T12:08:02.184Z,71.61
2018-08-29T12:09:02.149Z,70.64
2018-08-29T12:10:02.111Z,70.45
2018-08-29T12:11:02.081Z,70.64
2018-08-29T12:12:02.060Z,71.51
2018-08-29T12:13:02.032Z,71.36
2018-08-29T12:14:02.006Z,71.64
2018-08-29T12:15:01.976Z,71.74
2018-08-29T12:16:01.981Z,71.74
2018-08-29T12:17:01.910Z,71.22
2018-08-29T12:18:01.885Z,71.12
2018-08-29T12:19:01.895Z,71.06
2018-08-29T12:20:01.923Z,71.84
2018-08-29T12:21:01.892Z,72.81
2018-08-29T12:22:01.773Z,72.13
2018-08-29T12:23:01.741Z,71.22
2018-08-29T12:24:01.713Z,72.19
2018-08-29T12:25:01.685Z,72.49
2018-08-29T12:26:01.696Z,72.33
2018-08-29T12:27:01.630Z,71.90
2018-08-29T12:28:01.604Z,72.29
2018-08-29T12:29:01.573Z,73.36
2018-08-29T12:30:01.546Z,73.65
2018-08-29T12:31:01.552Z,74.04
2018-08-29T12:32:01.492Z,73.30
2018-08-29T12:33:01.465Z,74.27
2018-08-29T12:34:01.436Z,73.58
2018-08-29T12:35:01.403Z,72.77
2018-08-29T12:36:01.372Z,72.67
2018-08-29T12:37:01.345Z,72.81
2018-08-29T12:38:01.320Z,73.20
2018-08-29T12:39:01.293Z,73.94
2018-08-29T12:40:01.271Z,74.23
2018-08-29T12:41:01.239Z,73.36
2018-08-29T12:42:01.209Z,73.74
2018-08-29T12:43:01.177Z,73.46
2018-08-29T12:44:01.148Z,73.16
2018-08-29T12:45:01.130Z,74.23
2018-08-29T12:46:01.095Z,74.62
2018-08-29T12:47:01.062Z,74.91
2018-08-29T12:48:01.036Z,74.91
2018-08-29T12:49:01.011Z,74.62
2018-08-29T12:50:01.048Z,75.40
2018-08-29T12:51:00.953Z,75.84
2018-08-29T12:52:00.929Z,76.23
2018-08-29T12:53:00.904Z,77.20
2018-08-29T12:54:00.872Z,77.11
2018-08-29T12:55:00.838Z,77.78
2018-08-29T12:56:00.823Z,78.03
2018-08-29T12:57:00.783Z,78.13
2018-08-29T12:58:00.756Z,79.00
2018-08-29T12:59:00.733Z,80.65
2018-08-29T13:00:00.707Z,81.23
2018-08-29T13:01:00.670Z,82.59
2018-08-29T13:02:00.682Z,82.50
2018-08-29T13:03:00.622Z,83.95
2018-08-29T13:04:00.594Z,84.30
2018-08-29T13:05:00.565Z,84.00
2018-08-29T13:06:00.531Z,79.99
2018-08-29T13:07:00.504Z,76.89
2018-08-29T13:08:00.470Z,68.33
2018-08-29T13:09:00.440Z,60.57
2018-08-29T13:10:00.414Z,49.15
2018-08-29T13:11:00.393Z,44.96
2018-08-29T13:12:00.359Z,39.64
2018-08-29T13:13:00.335Z,30.27
2018-08-29T13:14:00.300Z,30.54
2018-08-29T13:15:00.268Z,25.03
2018-08-29T13:16:00.242Z,20.09
2018-08-29T13:17:00.214Z,12.65
2018-08-29T13:18:00.183Z,6.37